sensor_id;sensor_type;location;lat;lon;timestamp;temperature;humidity
30572;DHT22;17348;50.948;10.696;2023-04-01T00:02:07;9.70;99.90
30572;DHT22;17348;50.948;10.696;2023-04-01T00:05:11;9.70;99.90
30572;DHT22;17348;50.948;10.696;2023-04-01T00:08:13;9.70;99.90
30572;DHT22;17348;50.948;10.696;2023-04-01T00:11:17;9.70;99.90
30572;DHT22;17348;50.948;10.696;2023-04-01T00:14:20;9.70;99.90
30572;DHT22;17348;50.948;10.696;2023-04-01T00:17:22;9.70;99.90
30572;DHT22;17348;50.948;10.696;2023-04-01T00:20:24;9.70;99.90
30572;DHT22;17348;50.948;10.696;2023-04-01T00:23:27;9.70;99.90
30572;DHT22;17348;50.948;10.696;2023-04-01T00:26:30;9.70;99.90
30572;DHT22;17348;50.948;10.696;2023-04-01T00:29:33;9.70;99.90
30572;DHT22;17348;50.948;10.696;2023-04-01T00:32:35;9.70;99.90
30572;DHT22;17348;50.948;10.696;2023-04-01T00:35:39;9.70;99.90
30572;DHT22;17348;50.948;10.696;2023-04-01T00:38:42;9.70;99.90
30572;DHT22;17348;50.948;10.696;2023-04-01T00:41:47;9.70;99.90
30572;DHT22;17348;50.948;10.696;2023-04-01T00:44:51;9.70;99.90
30572;DHT22;17348;50.948;10.696;2023-04-01T00:47:54;9.80;99.90
30572;DHT22;17348;50.948;10.696;2023-04-01T00:51:00;9.80;99.90
30572;DHT22;17348;50.948;10.696;2023-04-01T00:54:04;9.80;99.90
30572;DHT22;17348;50.948;10.696;2023-04-01T00:57:12;9.80;99.90
30572;DHT22;17348;50.948;10.696;2023-04-01T01:00:16;9.80;99.90
30572;DHT22;17348;50.948;10.696;2023-04-01T01:03:19;9.80;99.90
30572;DHT22;17348;50.948;10.696;2023-04-01T01:06:30;9.80;99.90
30572;DHT22;17348;50.948;10.696;2023-04-01T01:09:45;9.90;99.90
30572;DHT22;17348;50.948;10.696;2023-04-01T01:12:56;9.80;99.90
30572;DHT22;17348;50.948;10.696;2023-04-01T01:16:06;9.90;99.90
30572;DHT22;17348;50.948;10.696;2023-04-01T01:19:21;9.90;99.90
30572;DHT22;17348;50.948;10.696;2023-04-01T01:22:43;9.90;99.90
30572;DHT22;17348;50.948;10.696;2023-04-01T01:25:57;9.90;99.90
30572;DHT22;17348;50.948;10.696;2023-04-01T01:29:12;9.90;99.90
30572;DHT22;17348;50.948;10.696;2023-04-01T01:32:29;9.90;99.90
30572;DHT22;17348;50.948;10.696;2023-04-01T01:35:38;9.90;99.90
30572;DHT22;17348;50.948;10.696;2023-04-01T01:38:42;9.90;99.90
30572;DHT22;17348;50.948;10.696;2023-04-01T01:41:45;9.90;99.90
30572;DHT22;17348;50.948;10.696;2023-04-01T01:44:51;9.90;99.90
30572;DHT22;17348;50.948;10.696;2023-04-01T01:47:55;9.90;99.90
30572;DHT22;17348;50.948;10.696;2023-04-01T01:51:00;9.90;99.90
30572;DHT22;17348;50.948;10.696;2023-04-01T01:54:02;9.90;99.90
30572;DHT22;17348;50.948;10.696;2023-04-01T01:57:07;9.90;99.90
30572;DHT22;17348;50.948;10.696;2023-04-01T02:00:12;9.90;99.90
30572;DHT22;17348;50.948;10.696;2023-04-01T02:03:15;9.90;99.90
30572;DHT22;17348;50.948;10.696;2023-04-01T02:06:23;9.90;99.90
30572;DHT22;17348;50.948;10.696;2023-04-01T02:09:25;9.90;99.90
30572;DHT22;17348;50.948;10.696;2023-04-01T02:12:29;9.80;99.90
30572;DHT22;17348;50.948;10.696;2023-04-01T02:15:33;9.80;99.90
30572;DHT22;17348;50.948;10.696;2023-04-01T02:18:39;9.80;99.90
30572;DHT22;17348;50.948;10.696;2023-04-01T02:21:45;9.90;99.90
30572;DHT22;17348;50.948;10.696;2023-04-01T02:24:49;9.90;99.90
30572;DHT22;17348;50.948;10.696;2023-04-01T02:27:52;9.80;99.90
30572;DHT22;17348;50.948;10.696;2023-04-01T02:30:58;9.80;99.90
30572;DHT22;17348;50.948;10.696;2023-04-01T02:34:03;9.80;99.90
30572;DHT22;17348;50.948;10.696;2023-04-01T02:37:07;9.70;99.90
30572;DHT22;17348;50.948;10.696;2023-04-01T02:40:11;9.70;99.90
30572;DHT22;17348;50.948;10.696;2023-04-01T02:43:14;9.70;99.90
30572;DHT22;17348;50.948;10.696;2023-04-01T02:46:17;9.70;99.90
30572;DHT22;17348;50.948;10.696;2023-04-01T02:49:19;9.70;99.90
30572;DHT22;17348;50.948;10.696;2023-04-01T02:52:23;9.60;99.90
30572;DHT22;17348;50.948;10.696;2023-04-01T02:55:25;9.60;99.90
30572;DHT22;17348;50.948;10.696;2023-04-01T02:58:28;9.50;99.90
30572;DHT22;17348;50.948;10.696;2023-04-01T03:01:30;9.60;99.90
30572;DHT22;17348;50.948;10.696;2023-04-01T03:04:32;9.60;99.90
30572;DHT22;17348;50.948;10.696;2023-04-01T03:07:36;9.60;99.90
30572;DHT22;17348;50.948;10.696;2023-04-01T03:10:38;9.50;99.90
30572;DHT22;17348;50.948;10.696;2023-04-01T03:13:41;9.50;99.90
30572;DHT22;17348;50.948;10.696;2023-04-01T03:16:43;9.40;99.90
30572;DHT22;17348;50.948;10.696;2023-04-01T03:19:45;9.40;99.90
30572;DHT22;17348;50.948;10.696;2023-04-01T03:22:49;9.40;99.90
30572;DHT22;17348;50.948;10.696;2023-04-01T03:25:51;9.40;99.90
30572;DHT22;17348;50.948;10.696;2023-04-01T03:28:54;9.30;99.90
30572;DHT22;17348;50.948;10.696;2023-04-01T03:31:57;9.30;99.90
30572;DHT22;17348;50.948;10.696;2023-04-01T03:34:59;9.40;99.90
30572;DHT22;17348;50.948;10.696;2023-04-01T03:38:03;9.40;99.90
30572;DHT22;17348;50.948;10.696;2023-04-01T03:41:05;9.40;99.90
30572;DHT22;17348;50.948;10.696;2023-04-01T03:44:08;9.30;99.90
30572;DHT22;17348;50.948;10.696;2023-04-01T03:47:10;9.30;99.90
30572;DHT22;17348;50.948;10.696;2023-04-01T03:50:12;9.40;99.90
30572;DHT22;17348;50.948;10.696;2023-04-01T03:53:16;9.40;99.90
30572;DHT22;17348;50.948;10.696;2023-04-01T03:56:19;9.40;99.90
30572;DHT22;17348;50.948;10.696;2023-04-01T03:59:21;9.40;99.90
30572;DHT22;17348;50.948;10.696;2023-04-01T04:02:23;9.40;99.90
30572;DHT22;17348;50.948;10.696;2023-04-01T04:05:26;9.50;99.90
30572;DHT22;17348;50.948;10.696;2023-04-01T04:08:30;9.40;99.90
30572;DHT22;17348;50.948;10.696;2023-04-01T04:11:33;9.40;99.90
30572;DHT22;17348;50.948;10.696;2023-04-01T04:14:35;9.50;99.90
30572;DHT22;17348;50.948;10.696;2023-04-01T04:17:37;9.50;99.90
30572;DHT22;17348;50.948;10.696;2023-04-01T04:20:43;9.40;99.90
30572;DHT22;17348;50.948;10.696;2023-04-01T04:23:49;9.50;99.90
30572;DHT22;17348;50.948;10.696;2023-04-01T04:26:52;9.50;99.90
30572;DHT22;17348;50.948;10.696;2023-04-01T04:29:54;9.50;99.90
30572;DHT22;17348;50.948;10.696;2023-04-01T04:32:57;9.50;99.90
30572;DHT22;17348;50.948;10.696;2023-04-01T04:36:01;9.50;99.90
30572;DHT22;17348;50.948;10.696;2023-04-01T04:39:05;9.50;99.90
30572;DHT22;17348;50.948;10.696;2023-04-01T04:42:08;9.50;99.90
30572;DHT22;17348;50.948;10.696;2023-04-01T04:45:10;9.50;99.90
30572;DHT22;17348;50.948;10.696;2023-04-01T04:48:15;9.50;99.90
30572;DHT22;17348;50.948;10.696;2023-04-01T04:51:20;9.50;99.90
30572;DHT22;17348;50.948;10.696;2023-04-01T04:54:24;9.50;99.90
30572;DHT22;17348;50.948;10.696;2023-04-01T04:57:26;9.50;99.90
30572;DHT22;17348;50.948;10.696;2023-04-01T05:00:28;9.50;99.90
30572;DHT22;17348;50.948;10.696;2023-04-01T05:03:31;9.50;99.90
30572;DHT22;17348;50.948;10.696;2023-04-01T05:06:34;9.50;99.90
30572;DHT22;17348;50.948;10.696;2023-04-01T05:09:37;9.50;99.90
30572;DHT22;17348;50.948;10.696;2023-04-01T05:12:39;9.50;99.90
30572;DHT22;17348;50.948;10.696;2023-04-01T05:15:42;9.50;99.90
30572;DHT22;17348;50.948;10.696;2023-04-01T05:18:45;9.60;99.90
30572;DHT22;17348;50.948;10.696;2023-04-01T05:21:47;9.60;99.90
30572;DHT22;17348;50.948;10.696;2023-04-01T05:24:51;9.60;99.90
30572;DHT22;17348;50.948;10.696;2023-04-01T05:27:53;9.60;99.90
30572;DHT22;17348;50.948;10.696;2023-04-01T05:30:58;9.60;99.90
30572;DHT22;17348;50.948;10.696;2023-04-01T05:34:01;9.60;99.90
30572;DHT22;17348;50.948;10.696;2023-04-01T05:37:03;9.60;99.90
30572;DHT22;17348;50.948;10.696;2023-04-01T05:40:08;9.60;99.90
30572;DHT22;17348;50.948;10.696;2023-04-01T05:43:11;9.60;99.90
30572;DHT22;17348;50.948;10.696;2023-04-01T05:46:13;9.60;99.90
30572;DHT22;17348;50.948;10.696;2023-04-01T05:49:16;9.70;99.90
30572;DHT22;17348;50.948;10.696;2023-04-01T05:52:18;9.80;99.90
30572;DHT22;17348;50.948;10.696;2023-04-01T05:55:22;9.90;99.90
30572;DHT22;17348;50.948;10.696;2023-04-01T05:58:25;10.00;99.90
30572;DHT22;17348;50.948;10.696;2023-04-01T06:01:27;10.20;99.90
30572;DHT22;17348;50.948;10.696;2023-04-01T06:04:34;10.40;99.90
30572;DHT22;17348;50.948;10.696;2023-04-01T06:07:39;10.50;99.90
30572;DHT22;17348;50.948;10.696;2023-04-01T06:10:52;10.70;99.90
30572;DHT22;17348;50.948;10.696;2023-04-01T06:14:07;10.70;99.90
30572;DHT22;17348;50.948;10.696;2023-04-01T06:17:25;10.80;99.90
30572;DHT22;17348;50.948;10.696;2023-04-01T06:20:37;10.90;99.90
30572;DHT22;17348;50.948;10.696;2023-04-01T06:23:52;11.00;99.90
30572;DHT22;17348;50.948;10.696;2023-04-01T06:27:06;11.10;99.90
30572;DHT22;17348;50.948;10.696;2023-04-01T06:30:29;11.10;99.90
30572;DHT22;17348;50.948;10.696;2023-04-01T06:33:48;11.00;99.90
30572;DHT22;17348;50.948;10.696;2023-04-01T06:37:09;11.00;99.90
30572;DHT22;17348;50.948;10.696;2023-04-01T06:40:25;11.00;99.90
30572;DHT22;17348;50.948;10.696;2023-04-01T06:43:38;11.00;99.90
30572;DHT22;17348;50.948;10.696;2023-04-01T06:46:47;11.00;99.90
30572;DHT22;17348;50.948;10.696;2023-04-01T06:49:57;11.00;99.90
30572;DHT22;17348;50.948;10.696;2023-04-01T06:53:09;10.90;99.90
30572;DHT22;17348;50.948;10.696;2023-04-01T06:56:15;10.90;99.90
30572;DHT22;17348;50.948;10.696;2023-04-01T06:59:24;10.80;99.90
30572;DHT22;17348;50.948;10.696;2023-04-01T07:02:33;10.70;99.90
30572;DHT22;17348;50.948;10.696;2023-04-01T07:05:39;10.70;99.90
30572;DHT22;17348;50.948;10.696;2023-04-01T07:08:43;10.70;99.90
30572;DHT22;17348;50.948;10.696;2023-04-01T07:11:46;10.60;99.90
30572;DHT22;17348;50.948;10.696;2023-04-01T07:14:51;10.60;99.90
30572;DHT22;17348;50.948;10.696;2023-04-01T07:17:58;10.60;99.90
30572;DHT22;17348;50.948;10.696;2023-04-01T07:21:03;10.60;99.90
30572;DHT22;17348;50.948;10.696;2023-04-01T07:24:10;10.60;99.90
30572;DHT22;17348;50.948;10.696;2023-04-01T07:27:14;10.60;99.90
30572;DHT22;17348;50.948;10.696;2023-04-01T07:30:20;10.60;99.90
30572;DHT22;17348;50.948;10.696;2023-04-01T07:33:26;10.70;99.90
30572;DHT22;17348;50.948;10.696;2023-04-01T07:36:36;10.80;99.90
30572;DHT22;17348;50.948;10.696;2023-04-01T07:39:47;10.90;99.90
30572;DHT22;17348;50.948;10.696;2023-04-01T07:43:05;11.10;99.90
30572;DHT22;17348;50.948;10.696;2023-04-01T07:46:19;11.20;99.90
30572;DHT22;17348;50.948;10.696;2023-04-01T07:49:32;11.30;99.90
30572;DHT22;17348;50.948;10.696;2023-04-01T07:52:44;11.50;99.90
30572;DHT22;17348;50.948;10.696;2023-04-01T07:55:54;11.70;99.90
30572;DHT22;17348;50.948;10.696;2023-04-01T07:59:04;11.80;99.90
30572;DHT22;17348;50.948;10.696;2023-04-01T08:02:21;11.80;99.90
30572;DHT22;17348;50.948;10.696;2023-04-01T08:05:28;11.80;99.90
30572;DHT22;17348;50.948;10.696;2023-04-01T08:08:42;11.80;99.90
30572;DHT22;17348;50.948;10.696;2023-04-01T08:11:56;11.80;99.90
30572;DHT22;17348;50.948;10.696;2023-04-01T08:15:10;11.90;99.90
30572;DHT22;17348;50.948;10.696;2023-04-01T08:18:26;12.00;99.90
30572;DHT22;17348;50.948;10.696;2023-04-01T08:21:35;12.20;99.90
30572;DHT22;17348;50.948;10.696;2023-04-01T08:24:42;12.20;99.90
30572;DHT22;17348;50.948;10.696;2023-04-01T08:27:46;12.20;99.90
30572;DHT22;17348;50.948;10.696;2023-04-01T08:30:53;12.20;99.90
30572;DHT22;17348;50.948;10.696;2023-04-01T08:34:00;12.20;99.90
30572;DHT22;17348;50.948;10.696;2023-04-01T08:37:08;12.30;99.90
30572;DHT22;17348;50.948;10.696;2023-04-01T08:40:52;12.40;99.90
30572;DHT22;17348;50.948;10.696;2023-04-01T08:44:15;12.40;99.90
30572;DHT22;17348;50.948;10.696;2023-04-01T08:47:50;12.50;99.90
30572;DHT22;17348;50.948;10.696;2023-04-01T08:51:19;12.40;99.90
30572;DHT22;17348;50.948;10.696;2023-04-01T08:54:42;12.50;99.90
30572;DHT22;17348;50.948;10.696;2023-04-01T08:57:56;12.50;99.90
30572;DHT22;17348;50.948;10.696;2023-04-01T09:01:14;12.50;99.90
30572;DHT22;17348;50.948;10.696;2023-04-01T09:04:41;12.40;99.90
30572;DHT22;17348;50.948;10.696;2023-04-01T09:07:57;12.40;99.90
30572;DHT22;17348;50.948;10.696;2023-04-01T09:11:08;12.40;99.90
30572;DHT22;17348;50.948;10.696;2023-04-01T09:14:37;12.30;99.90
30572;DHT22;17348;50.948;10.696;2023-04-01T09:18:20;12.30;99.90
30572;DHT22;17348;50.948;10.696;2023-04-01T09:21:41;12.10;99.90
30572;DHT22;17348;50.948;10.696;2023-04-01T09:25:06;12.10;99.90
30572;DHT22;17348;50.948;10.696;2023-04-01T09:28:18;12.20;99.90
30572;DHT22;17348;50.948;10.696;2023-04-01T09:31:31;12.20;99.90
30572;DHT22;17348;50.948;10.696;2023-04-01T09:34:53;12.30;99.90
30572;DHT22;17348;50.948;10.696;2023-04-01T09:38:09;12.40;99.90
30572;DHT22;17348;50.948;10.696;2023-04-01T09:41:22;12.40;99.90
30572;DHT22;17348;50.948;10.696;2023-04-01T09:44:33;12.40;99.90
30572;DHT22;17348;50.948;10.696;2023-04-01T09:47:47;12.50;99.90
30572;DHT22;17348;50.948;10.696;2023-04-01T09:51:02;12.60;99.90
30572;DHT22;17348;50.948;10.696;2023-04-01T09:54:16;12.50;99.90
30572;DHT22;17348;50.948;10.696;2023-04-01T10:01:26;12.50;99.90
30572;DHT22;17348;50.948;10.696;2023-04-01T10:08:42;12.50;99.90
30572;DHT22;17348;50.948;10.696;2023-04-01T10:19:39;12.40;99.90
30572;DHT22;17348;50.948;10.696;2023-04-01T10:26:53;12.60;99.90
30572;DHT22;17348;50.948;10.696;2023-04-01T10:30:25;12.70;99.90
30572;DHT22;17348;50.948;10.696;2023-04-01T10:33:51;12.90;99.90
30572;DHT22;17348;50.948;10.696;2023-04-01T10:37:03;13.00;99.90
30572;DHT22;17348;50.948;10.696;2023-04-01T10:40:26;12.90;99.90
30572;DHT22;17348;50.948;10.696;2023-04-01T10:47:42;13.00;99.90
30572;DHT22;17348;50.948;10.696;2023-04-01T10:51:04;13.30;99.90
30572;DHT22;17348;50.948;10.696;2023-04-01T10:54:28;13.60;99.90
30572;DHT22;17348;50.948;10.696;2023-04-01T10:57:58;13.80;99.90
30572;DHT22;17348;50.948;10.696;2023-04-01T11:01:27;14.00;99.90
30572;DHT22;17348;50.948;10.696;2023-04-01T11:23:21;13.80;99.90
30572;DHT22;17348;50.948;10.696;2023-04-01T11:26:33;13.80;99.90
30572;DHT22;17348;50.948;10.696;2023-04-01T11:30:14;13.70;99.90
30572;DHT22;17348;50.948;10.696;2023-04-01T11:33:22;13.70;99.90
30572;DHT22;17348;50.948;10.696;2023-04-01T11:36:37;13.90;99.90
30572;DHT22;17348;50.948;10.696;2023-04-01T11:39:50;14.10;99.90
30572;DHT22;17348;50.948;10.696;2023-04-01T11:43:04;14.30;99.90
30572;DHT22;17348;50.948;10.696;2023-04-01T11:46:10;14.30;99.90
30572;DHT22;17348;50.948;10.696;2023-04-01T11:49:25;14.30;99.90
30572;DHT22;17348;50.948;10.696;2023-04-01T11:56:07;14.10;99.90
30572;DHT22;17348;50.948;10.696;2023-04-01T11:59:33;14.10;99.90
30572;DHT22;17348;50.948;10.696;2023-04-01T12:02:52;14.00;99.90
30572;DHT22;17348;50.948;10.696;2023-04-01T12:06:16;13.80;99.90
30572;DHT22;17348;50.948;10.696;2023-04-01T12:09:24;13.70;99.90
30572;DHT22;17348;50.948;10.696;2023-04-01T12:12:38;13.60;99.90
30572;DHT22;17348;50.948;10.696;2023-04-01T12:15:58;13.60;99.90
30572;DHT22;17348;50.948;10.696;2023-04-01T12:19:08;13.60;99.90
30572;DHT22;17348;50.948;10.696;2023-04-01T12:22:34;13.70;99.90
30572;DHT22;17348;50.948;10.696;2023-04-01T12:26:00;13.80;99.90
30572;DHT22;17348;50.948;10.696;2023-04-01T12:29:19;14.10;99.90
30572;DHT22;17348;50.948;10.696;2023-04-01T12:32:32;14.20;99.90
30572;DHT22;17348;50.948;10.696;2023-04-01T12:35:51;14.40;99.90
30572;DHT22;17348;50.948;10.696;2023-04-01T12:39:18;14.50;99.90
30572;DHT22;17348;50.948;10.696;2023-04-01T12:42:44;14.60;99.90
30572;DHT22;17348;50.948;10.696;2023-04-01T12:45:57;14.70;99.90
30572;DHT22;17348;50.948;10.696;2023-04-01T12:49:22;14.80;99.90
30572;DHT22;17348;50.948;10.696;2023-04-01T12:52:38;14.70;99.90
30572;DHT22;17348;50.948;10.696;2023-04-01T12:55:45;14.80;99.90
30572;DHT22;17348;50.948;10.696;2023-04-01T12:59:08;14.80;99.90
30572;DHT22;17348;50.948;10.696;2023-04-01T13:02:22;14.80;99.90
30572;DHT22;17348;50.948;10.696;2023-04-01T13:05:57;14.80;99.90
30572;DHT22;17348;50.948;10.696;2023-04-01T13:09:15;14.80;99.90
30572;DHT22;17348;50.948;10.696;2023-04-01T13:12:39;14.90;99.90
30572;DHT22;17348;50.948;10.696;2023-04-01T13:15:45;14.80;99.90
30572;DHT22;17348;50.948;10.696;2023-04-01T13:18:57;14.90;99.90
30572;DHT22;17348;50.948;10.696;2023-04-01T13:22:06;15.10;99.90
30572;DHT22;17348;50.948;10.696;2023-04-01T13:25:21;15.10;99.90
30572;DHT22;17348;50.948;10.696;2023-04-01T13:28:30;15.10;99.90
30572;DHT22;17348;50.948;10.696;2023-04-01T13:31:46;14.80;99.90
30572;DHT22;17348;50.948;10.696;2023-04-01T13:35:01;14.80;99.90
30572;DHT22;17348;50.948;10.696;2023-04-01T13:38:20;14.80;99.90
30572;DHT22;17348;50.948;10.696;2023-04-01T13:41:38;14.70;99.90
30572;DHT22;17348;50.948;10.696;2023-04-01T13:44:49;14.70;99.90
30572;DHT22;17348;50.948;10.696;2023-04-01T13:48:24;14.70;99.90
30572;DHT22;17348;50.948;10.696;2023-04-01T13:51:57;14.70;99.90
30572;DHT22;17348;50.948;10.696;2023-04-01T13:55:30;14.70;99.90
30572;DHT22;17348;50.948;10.696;2023-04-01T13:58:48;14.70;99.90
30572;DHT22;17348;50.948;10.696;2023-04-01T14:02:02;14.60;99.90
30572;DHT22;17348;50.948;10.696;2023-04-01T14:05:24;14.40;99.90
30572;DHT22;17348;50.948;10.696;2023-04-01T14:08:40;14.30;99.90
30572;DHT22;17348;50.948;10.696;2023-04-01T14:11:53;14.20;99.90
30572;DHT22;17348;50.948;10.696;2023-04-01T14:15:14;13.90;99.90
30572;DHT22;17348;50.948;10.696;2023-04-01T14:18:42;13.80;99.90
30572;DHT22;17348;50.948;10.696;2023-04-01T14:21:51;13.80;99.90
30572;DHT22;17348;50.948;10.696;2023-04-01T14:28:42;14.10;99.90
30572;DHT22;17348;50.948;10.696;2023-04-01T14:32:03;14.10;99.90
30572;DHT22;17348;50.948;10.696;2023-04-01T14:35:26;14.00;99.90
30572;DHT22;17348;50.948;10.696;2023-04-01T14:38:46;14.10;99.90
30572;DHT22;17348;50.948;10.696;2023-04-01T14:42:02;14.00;99.90
30572;DHT22;17348;50.948;10.696;2023-04-01T14:45:25;14.10;99.90
30572;DHT22;17348;50.948;10.696;2023-04-01T14:48:37;14.10;99.90
30572;DHT22;17348;50.948;10.696;2023-04-01T14:51:42;14.10;99.90
30572;DHT22;17348;50.948;10.696;2023-04-01T14:54:48;13.90;99.90
30572;DHT22;17348;50.948;10.696;2023-04-01T14:58:09;13.80;99.90
30572;DHT22;17348;50.948;10.696;2023-04-01T15:01:30;13.70;99.90
30572;DHT22;17348;50.948;10.696;2023-04-01T15:04:49;13.60;99.90
30572;DHT22;17348;50.948;10.696;2023-04-01T15:08:05;13.60;99.90
30572;DHT22;17348;50.948;10.696;2023-04-01T15:11:28;13.50;99.90
30572;DHT22;17348;50.948;10.696;2023-04-01T15:14:50;13.50;99.90
30572;DHT22;17348;50.948;10.696;2023-04-01T15:18:03;13.50;99.90
30572;DHT22;17348;50.948;10.696;2023-04-01T15:21:13;13.50;99.90
30572;DHT22;17348;50.948;10.696;2023-04-01T15:24:24;13.60;99.90
30572;DHT22;17348;50.948;10.696;2023-04-01T15:27:34;13.50;99.90
30572;DHT22;17348;50.948;10.696;2023-04-01T15:30:49;13.50;99.90
30572;DHT22;17348;50.948;10.696;2023-04-01T15:34:17;13.40;99.90
30572;DHT22;17348;50.948;10.696;2023-04-01T15:37:31;13.30;99.90
30572;DHT22;17348;50.948;10.696;2023-04-01T15:40:44;13.30;99.90
30572;DHT22;17348;50.948;10.696;2023-04-01T15:43:50;13.20;99.90
30572;DHT22;17348;50.948;10.696;2023-04-01T15:46:53;13.20;99.90
30572;DHT22;17348;50.948;10.696;2023-04-01T15:50:06;13.10;99.90
30572;DHT22;17348;50.948;10.696;2023-04-01T15:53:28;13.00;99.90
30572;DHT22;17348;50.948;10.696;2023-04-01T15:57:03;13.00;99.90
30572;DHT22;17348;50.948;10.696;2023-04-01T16:00:22;12.90;99.90
30572;DHT22;17348;50.948;10.696;2023-04-01T16:03:35;12.80;99.90
30572;DHT22;17348;50.948;10.696;2023-04-01T16:06:53;12.70;99.90
30572;DHT22;17348;50.948;10.696;2023-04-01T16:10:16;12.70;99.90
30572;DHT22;17348;50.948;10.696;2023-04-01T16:13:28;12.70;99.90
30572;DHT22;17348;50.948;10.696;2023-04-01T16:16:43;12.70;99.90
30572;DHT22;17348;50.948;10.696;2023-04-01T16:19:54;12.70;99.90
30572;DHT22;17348;50.948;10.696;2023-04-01T16:23:02;12.50;99.90
30572;DHT22;17348;50.948;10.696;2023-04-01T16:26:09;12.50;99.90
30572;DHT22;17348;50.948;10.696;2023-04-01T16:29:25;12.40;99.90
30572;DHT22;17348;50.948;10.696;2023-04-01T16:32:38;12.50;99.90
30572;DHT22;17348;50.948;10.696;2023-04-01T16:35:46;12.50;99.90
30572;DHT22;17348;50.948;10.696;2023-04-01T16:38:59;12.50;99.90
30572;DHT22;17348;50.948;10.696;2023-04-01T16:42:19;12.40;99.90
30572;DHT22;17348;50.948;10.696;2023-04-01T16:45:32;12.40;99.90
30572;DHT22;17348;50.948;10.696;2023-04-01T16:48:49;12.40;99.90
30572;DHT22;17348;50.948;10.696;2023-04-01T16:52:00;12.40;99.90
30572;DHT22;17348;50.948;10.696;2023-04-01T16:55:15;12.30;99.90
30572;DHT22;17348;50.948;10.696;2023-04-01T16:58:23;12.10;99.90
30572;DHT22;17348;50.948;10.696;2023-04-01T17:01:31;12.00;99.90
30572;DHT22;17348;50.948;10.696;2023-04-01T17:04:44;12.00;99.90
30572;DHT22;17348;50.948;10.696;2023-04-01T17:07:49;12.00;99.90
30572;DHT22;17348;50.948;10.696;2023-04-01T17:11:06;12.00;99.90
30572;DHT22;17348;50.948;10.696;2023-04-01T17:14:20;12.10;99.90
30572;DHT22;17348;50.948;10.696;2023-04-01T17:17:37;12.10;99.90
30572;DHT22;17348;50.948;10.696;2023-04-01T17:20:50;12.00;99.90
30572;DHT22;17348;50.948;10.696;2023-04-01T17:24:04;12.00;99.90
30572;DHT22;17348;50.948;10.696;2023-04-01T17:27:22;11.90;99.90
30572;DHT22;17348;50.948;10.696;2023-04-01T17:30:31;11.90;99.90
30572;DHT22;17348;50.948;10.696;2023-04-01T17:34:04;11.90;99.90
30572;DHT22;17348;50.948;10.696;2023-04-01T17:37:28;11.90;99.90
30572;DHT22;17348;50.948;10.696;2023-04-01T17:40:41;11.90;99.90
30572;DHT22;17348;50.948;10.696;2023-04-01T17:43:52;11.80;99.90
30572;DHT22;17348;50.948;10.696;2023-04-01T17:47:16;11.80;99.90
30572;DHT22;17348;50.948;10.696;2023-04-01T17:50:30;11.80;99.90
30572;DHT22;17348;50.948;10.696;2023-04-01T17:53:43;11.80;99.90
30572;DHT22;17348;50.948;10.696;2023-04-01T17:56:59;11.70;99.90
30572;DHT22;17348;50.948;10.696;2023-04-01T18:00:18;11.70;99.90
30572;DHT22;17348;50.948;10.696;2023-04-01T18:03:27;11.60;99.90
30572;DHT22;17348;50.948;10.696;2023-04-01T18:06:39;11.50;99.90
30572;DHT22;17348;50.948;10.696;2023-04-01T18:09:53;11.50;99.90
30572;DHT22;17348;50.948;10.696;2023-04-01T18:13:19;11.40;99.90
30572;DHT22;17348;50.948;10.696;2023-04-01T18:16:43;11.40;99.90
30572;DHT22;17348;50.948;10.696;2023-04-01T18:20:02;11.30;99.90
30572;DHT22;17348;50.948;10.696;2023-04-01T18:23:21;11.30;99.90
30572;DHT22;17348;50.948;10.696;2023-04-01T18:26:29;11.30;99.90
30572;DHT22;17348;50.948;10.696;2023-04-01T18:29:39;11.20;99.90
30572;DHT22;17348;50.948;10.696;2023-04-01T18:32:48;11.20;99.90
30572;DHT22;17348;50.948;10.696;2023-04-01T18:35:56;11.20;99.90
30572;DHT22;17348;50.948;10.696;2023-04-01T18:39:07;11.20;99.90
30572;DHT22;17348;50.948;10.696;2023-04-01T18:42:19;11.10;99.90
30572;DHT22;17348;50.948;10.696;2023-04-01T18:45:27;11.10;99.90
30572;DHT22;17348;50.948;10.696;2023-04-01T18:48:40;11.10;99.90
30572;DHT22;17348;50.948;10.696;2023-04-01T18:51:47;11.10;99.90
30572;DHT22;17348;50.948;10.696;2023-04-01T18:55:18;11.10;99.90
30572;DHT22;17348;50.948;10.696;2023-04-01T18:58:28;11.10;99.90
30572;DHT22;17348;50.948;10.696;2023-04-01T19:01:36;11.00;99.90
30572;DHT22;17348;50.948;10.696;2023-04-01T19:04:42;11.00;99.90
30572;DHT22;17348;50.948;10.696;2023-04-01T19:07:47;11.00;99.90
30572;DHT22;17348;50.948;10.696;2023-04-01T19:11:04;10.90;99.90
30572;DHT22;17348;50.948;10.696;2023-04-01T19:14:15;10.90;99.90
30572;DHT22;17348;50.948;10.696;2023-04-01T19:17:31;10.80;99.90
30572;DHT22;17348;50.948;10.696;2023-04-01T19:20:38;10.80;99.90
30572;DHT22;17348;50.948;10.696;2023-04-01T19:24:03;10.80;99.90
30572;DHT22;17348;50.948;10.696;2023-04-01T19:27:18;10.70;99.90
30572;DHT22;17348;50.948;10.696;2023-04-01T19:30:36;10.70;99.90
30572;DHT22;17348;50.948;10.696;2023-04-01T19:33:50;10.50;99.90
30572;DHT22;17348;50.948;10.696;2023-04-01T19:36:56;10.50;99.90
30572;DHT22;17348;50.948;10.696;2023-04-01T19:40:20;10.50;99.90
30572;DHT22;17348;50.948;10.696;2023-04-01T19:43:44;10.50;99.90
30572;DHT22;17348;50.948;10.696;2023-04-01T19:46:53;10.50;99.90
30572;DHT22;17348;50.948;10.696;2023-04-01T19:50:04;10.50;99.90
30572;DHT22;17348;50.948;10.696;2023-04-01T19:53:16;10.50;99.90
30572;DHT22;17348;50.948;10.696;2023-04-01T19:56:23;10.50;99.90
30572;DHT22;17348;50.948;10.696;2023-04-01T19:59:33;10.60;99.90
30572;DHT22;17348;50.948;10.696;2023-04-01T20:02:43;10.60;99.90
30572;DHT22;17348;50.948;10.696;2023-04-01T20:05:53;10.60;99.90
30572;DHT22;17348;50.948;10.696;2023-04-01T20:09:08;10.60;99.90
30572;DHT22;17348;50.948;10.696;2023-04-01T20:12:21;10.60;99.90
30572;DHT22;17348;50.948;10.696;2023-04-01T20:15:33;10.60;99.90
30572;DHT22;17348;50.948;10.696;2023-04-01T20:18:44;10.70;99.90
30572;DHT22;17348;50.948;10.696;2023-04-01T20:21:48;10.60;99.90
30572;DHT22;17348;50.948;10.696;2023-04-01T20:24:52;10.60;99.90
30572;DHT22;17348;50.948;10.696;2023-04-01T20:27:56;10.60;99.90
30572;DHT22;17348;50.948;10.696;2023-04-01T20:31:27;10.60;99.90
30572;DHT22;17348;50.948;10.696;2023-04-01T20:34:40;10.60;99.90
30572;DHT22;17348;50.948;10.696;2023-04-01T20:37:50;10.50;99.90
30572;DHT22;17348;50.948;10.696;2023-04-01T20:40:59;10.50;99.90
30572;DHT22;17348;50.948;10.696;2023-04-01T20:44:09;10.50;99.90
30572;DHT22;17348;50.948;10.696;2023-04-01T20:47:24;10.50;99.90